• Join FlightAware (Why Join?)
  • Login
  • US Flag 
03:13PM EDT


 

Airport Tracker/Info


-or-


 

Live Flight TrackerFlight Track Log ✈ SWA2279 ✈ 08-Jun-2013 ✈ KBWI - KMHT

Flight Track Log - Related Links

Times and Time Zones

All times are in EDT time to prevent confusion due to time zone crossing. See the SWA2279 flight status page for this flight to view local times or setup timezone preferences in your user account.

Time Position Orientation Groundspeed Altitude Reporting Facility
EDT Latitude Longitude Course Direction KTS MPH feet Rate Location/Type
06:14PM 39.1667 -76.7333 142° Southeast 189 217 1,800  Level Potomac TRACON
06:15PM 39.1147 -76.6803 142° Southeast 224 258 5,100 2,520 Climbing Washington Center
06:16PM 39.1261 -76.5789 82° East 224 258 8,400 3,000 Climbing Washington Center
06:17PM 39.1333 -76.4639 85° East 259 298 11,100 2,880 Climbing Washington Center
06:18PM 39.1425 -76.3303 85° East 317 365 14,200 3,120 Climbing Washington Center
06:19PM 39.1578 -76.1939 82° East 353 406 17,400 3,120 Climbing Washington Center
06:20PM 39.2292 -76.0631 55° Northeast 403 464 20,500 2,640 Climbing Washington Center
06:21PM 39.2964 -75.9403 55° Northeast 405 466 22,800 1,980 Climbing Washington Center
06:22PM 39.3675 -75.8117 54° Northeast 418 481 24,500 1,620 Climbing Washington Center
06:23PM 39.4386 -75.6722 57° Northeast 440 506 26,100 1,620 Climbing Washington Center
06:24PM 39.5156 -75.5325 54° Northeast 459 528 27,800 1,560 Climbing Washington Center
06:25PM 39.6258 -75.4136 40° Northeast 486 559 29,300 1,620 Climbing Washington Center
06:26PM 39.7486 -75.3217 30° Northeast 500 575 31,000 1,560 Climbing Washington Center
06:27PM 39.8172 -75.2681 31° Northeast 505 581 32,100 1,500 Climbing New York Center
06:28PM 39.9358 -75.1675 33° Northeast 530 610 33,700 1,440 Climbing New York Center
06:29PM 40.0753 -75.0569 31° Northeast 530 610 35,000 660 Climbing New York Center
06:30PM 40.2000 -74.9531 32° Northeast 530 610 35,000  Level New York Center
06:31PM 40.3275 -74.8764 25° Northeast 519 597 35,000  Level New York Center
06:32PM 40.4631 -74.8164 19° North 506 582 35,000  Level New York Center
06:33PM 40.5961 -74.7614 17° North 501 577 35,000  Level New York Center
06:35PM 40.8931 -74.6311 18° North 509 586 35,000  Level Boston Center
06:36PM 41.0131 -74.5803 18° North 509 586 35,000  Level Boston Center
06:37PM 41.1475 -74.5186 19° North 509 586 35,000  Level Boston Center
06:38PM 41.2964 -74.4597 17° North 509 586 35,000  Level Boston Center
06:39PM 41.4036 -74.4133 18° North 503 579 35,000 -60 Level Boston Center
06:40PM 41.5653 -74.3406 19° North 504 580 34,900 -600 Descending Boston Center
06:41PM 41.6978 -74.2806 19° North 504 580 33,900 -960 Descending Boston Center
06:42PM 41.8194 -74.2314 17° North 480 552 33,000 -900 Descending Boston Center
06:43PM 41.9453 -74.1733 19° North 468 539 32,100 -1,020 Descending Boston Center
06:44PM 42.0711 -74.1153 19° North 468 539 31,000 -1,020 Descending Boston Center
06:45PM 42.1850 -74.0317 29° Northeast 468 539 30,100 -960 Descending Boston Center
06:46PM 42.2886 -73.9136 40° Northeast 469 540 29,100 -960 Descending Boston Center
06:47PM 42.3881 -73.7950 41° Northeast 474 545 28,200 -960 Descending Boston Center
06:48PM 42.4400 -73.6244 68° East 465 535 27,200 -1,020 Descending Boston Center
06:49PM 42.4856 -73.4564 70° East 465 535 26,200 -1,080 Descending Boston Center
06:50PM 42.5328 -73.2656 71° East 509 586 25,100 -1,140 Descending Boston Center
06:51PM 42.5797 -73.0997 69° East 490 564 24,000 -1,380 Descending Boston Center
06:52PM 42.6222 -72.9394 70° East 470 541 22,400 -1,620 Descending Boston Center
06:53PM 42.6644 -72.7817 70° East 457 526 20,800 -1,800 Descending Boston Center
06:54PM 42.6961 -72.6322 74° East 431 496 18,800 -2,580 Descending Boston Center
06:55PM 42.7214 -72.4825 77° East 408 470 15,700 -2,700 Descending Boston Center
06:56PM 42.7483 -72.3383 76° East 403 464 13,500 -2,340 Descending Boston Center
06:57PM 42.7733 -72.1969 76° East 391 450 11,100 -1,800 Descending Boston Center
06:58PM 42.7978 -72.0608 76° East 373 429 10,000 -960 Descending Boston Center
06:59PM 42.8161 -71.9419 78° East 342 394 9,200 -1,200 Descending Boston Center
07:00PM 42.8092 -71.8231 95° East 309 356 7,700 -1,320 Descending Boston Center
07:02PM 42.8000 -71.6167 93° East 257 296 5,500 -1,200 Descending KA90
07:03PM 42.7906 -71.5178 97° East 259 298 4,200 -1,140 Descending Boston Center
07:04PM 42.7919 -71.4300 89° East 244 281 3,100 -960 Descending Boston Center
07:05PM 42.8331 -71.3842 39° Northeast 194 223 2,300 -900 Descending Boston Center
07:06PM 42.8728 -71.3975 346° North 139 160 1,300 -840 Descending Boston Center
07:07PM 42.9044 -71.4197 333° Northwest 127 146 700 -540 Descending Boston Center
07:08PM 42.9336 -71.4333 341° North 127 146 300 4,140 Descending Boston Center
07:09PM 42.9650 -71.4556 333° Northwest 127 146 9,000 4,320 Climbing Boston Center
07:10PM 42.9964 -71.4750 336° Northwest 127 146 9,000  Level Boston Center
07:12PM 42.9328 -71.4358 160° South  Level Estimated
07:19PM 42.9328 -71.4358 160° South  Level Estimated
07:20PM 42.9328 -71.4358 160° South  Level Estimated
07:21PM 42.9328 -71.4358 160° South  Level Estimated
07:22PM 42.9328 -71.4358 160° South  Level Estimated
07:23PM 42.9328 -71.4358 160° South  Level Estimated
07:24PM 42.9328 -71.4358 160° South  Level Estimated